Portada
METAR-TAF:

METAR-TAF

Aeroports :

Base aèria

Anápolis, Goiás, Brasil

latitud: 16-14S, longitud: 048-58W, altitud: 1137 m

Observació

L'informe es va fer fa 34 minuts, a les 13:00 UTC
Vent 18 kt del Est/Nord-Est
Temperatura 18°C
Humitat 49%
Pressió 1025 hPa
Visibilitat 10 km o més
sense núvols per sota de 1500 mi sense presència de cumulonimbus.

METAR: SBAN 201300Z 06018KT CAVOK 18/07 Q1025

Hora: 10:34 (13:34 UTC)

Pronòstic

L'informe es va fer fa 3 hores i 34 minuts, a les 10:00 UTC
Pronòstic vàlid del 20 a les 12 UTC al 20 a les 24 UTC
Vent 10 kt del Est
Visibilitat 10 km o més
sense núvols per sota de 1500 mi sense presència de cumulonimbus.
Temporalment
l' 20 a les 15 UTC al 20 a les 19 UTC
Visibilitat 10 km o més
Escasses núvols a una alçada de 3500 ft

TAF: SBAN 201000Z 2012/2024 09010KT CAVOK TX25/2017Z TN18/2023Z TEMPO 2015/2019 9999 FEW035 RMK PFY

Observacions i pronòstics meteorològics de més de 4000 aeroports (METAR i TAF).

Les estacions disponibles són els punts grocs i vermells al mapa.

Posi el ratolí al punt desitjat per veure el nom de l'estació.

Feu clic per veure les observacions i els pronòstics meteorològics.

Per canviar el mapa: feu clic els botons verds amb una creu de color negre per apropar; al botó verd amb un guió per allunyar la imatge; o en les fletxes verdes per a mapes adjacents.


METAR-TAF: